Békásmegyer ÉK további részletek Békásmegyer ÉK


Békásmegyer DK további részletek Békásmegyer DK


Csillaghegy NY további részletek Csillaghegy NY


Előrejelzés további részletek Előrejelzés


Eu hőtérkép további részletek Eu hőtérkép


Műhold további részletek Műhold


Radar további részletek Radar


EU min. hőtérkép további részletek EU min. hőtérkép


EU max. hőtérkép további részletek EU max. hőtérkép


Mo radar (forrás: met.hu) további részletek Mo radar (forrás: met.hu)


Villámtérkép további részletek blitzortung!


Csapadékradar további részletek rain snow radar



Közeli METAR jelentések

   
LHBP - Budapest
Távolság az állomástól: DK 24 km
Frissítve: Dec 4 2022 6:41 am
  
  
   Szél: ÉK 7.4 km/h
Szél: ÉK 7.4 km/h
Látótávolság: 5 km
LHBP 040541Z 05004KT 4800 2000 BR SCT004 02/01 Q1023 BECMG 1200 PRFG BKN004
LHDC - Debrecen
Távolság az állomástól: K 192 km
Frissítve: Dec 4 2022 6:36 am
Fagyos, Köd, Közepesen felhős  
Fagyos, Köd, Közepesen felhős  
   Szél: ÉK 5.6 km/h
Szél: ÉK 5.6 km/h
Hőmérséklet: 0°C
Szélhűtés: -2°C
Harmatpont: 0°C
Páratartalom: 100%
Légnyomás: 1024 hPa
Felhők: Közepesen felhős
Látótávolság: 1 km
Felhő fajták: Közepesen felhős
LHDC 040536Z AUTO 05003KT 0600 R04/0700D FZFG NSC M00/M00 Q1024
LHKE - Kecskemét
Távolság az állomástól: DK 91 km
Frissítve: Dec 4 2022 6:45 am
Fagyos, Köd, Erősen felhős  
Fagyos, Köd, Erősen felhős  
   Szél: KÉK 7.4 km/h
Szél: KÉK 7.4 km/h
Hőmérséklet: -1°C
Szélhűtés: -4°C
Harmatpont: -1°C
Páratartalom: 100%
Légnyomás: 1023 hPa
Felhők: Erősen felhős
Látótávolság: 0 km
Felhő fajták: Erősen felhős 200 ft
LHKE 040545Z 06004KT 0300 FZFG BKN002 M01/M01 Q1023 NOSIG RMK RED
LHPA - Pápa
Távolság az állomástól: NY 121 km
Frissítve: Dec 4 2022 6:45 am
Párásság, Borult  
Párásság, Borult  
   Szél: DK 7.4 km/h
Szél: DK 7.4 km/h
Hőmérséklet: 4°C
Szélhűtés: 2°C
Harmatpont: 2°C
Páratartalom: 87%
Légnyomás: 1021 hPa
Felhők: Borult
Látótávolság: 4 km
Felhő fajták: Borult 1000 ft
LHPA 040545Z 14004KT 4000 BR OVC010 04/02 Q1021 NOSIG RMK GRN
LZSL - Sliac, Slovakia
Távolság az állomástól: É 116 km
Frissítve: Jun 9 2021 10:32 am
NOT Current
Kissé felhős  
Kissé felhős  
   Szél: DK 7.4 km/h
Szél: DK 7.4 km/h
Hőmérséklet: 25°C
Harmatpont: 11°C
Páratartalom: 42%
Légnyomás: 1017 hPa
Felhők: Kissé felhős
Látótávolság: More than 10 km
Felhő fajták: Kissé felhős 4000 ft
LZSL 090832Z 13004KT 9999 FEW040 25/11 Q1017
LOWW - Wien, Austria
Távolság az állomástól: NY 195 km
Frissítve: Dec 4 2022 6:50 am
Erősen felhős  
Erősen felhős  
   Szél: KDK 22.2 km/h
Szél: KDK 22.2 km/h
Hőmérséklet: 4°C
Szélhűtés: -1°C
Harmatpont: 2°C
Páratartalom: 87%
Légnyomás: 1020 hPa
Felhők: Erősen felhős
Látótávolság: 6 km
Felhő fajták: Kissé felhős 500 ft,
Erősen felhős 600 ft
LOWW 040550Z 12012KT 6000 FEW005 BKN006 04/02 Q1020 NOSIG

Eredeti script  Saratoga-weather.org Adapted for the template by  Weerstation Leuven